sensor_id;sensor_type;location;lat;lon;timestamp;pressure;altitude;pressure_sealevel;temperature;humidity
12077;BME280;12420;42.676;23.262;2022-09-09T00:00:54;94831.09;;;19.32;100.00
12077;BME280;12420;42.676;23.262;2022-09-09T00:03:25;94810.81;;;19.24;100.00
12077;BME280;12420;42.676;23.262;2022-09-09T00:05:59;94795.19;;;19.03;100.00
12077;BME280;12420;42.676;23.262;2022-09-09T00:08:38;94774.72;;;18.58;100.00
12077;BME280;12420;42.676;23.262;2022-09-09T00:11:12;94810.31;;;19.18;100.00
12077;BME280;12420;42.676;23.262;2022-09-09T00:13:46;94801.59;;;19.14;100.00
12077;BME280;12420;42.676;23.262;2022-09-09T00:16:17;94784.78;;;18.61;100.00
12077;BME280;12420;42.676;23.262;2022-09-09T00:18:53;94771.16;;;18.93;100.00
12077;BME280;12420;42.676;23.262;2022-09-09T00:21:25;94810.91;;;19.16;100.00
12077;BME280;12420;42.676;23.262;2022-09-09T00:23:57;94700.69;;;18.44;100.00
12077;BME280;12420;42.676;23.262;2022-09-09T00:26:32;94805.22;;;19.06;100.00
12077;BME280;12420;42.676;23.262;2022-09-09T00:29:05;94753.59;;;18.75;100.00
12077;BME280;12420;42.676;23.262;2022-09-09T00:31:36;94765.91;;;18.79;100.00
12077;BME280;12420;42.676;23.262;2022-09-09T00:34:10;94792.84;;;19.09;100.00
12077;BME280;12420;42.676;23.262;2022-09-09T00:36:39;94784.75;;;19.14;100.00
12077;BME280;12420;42.676;23.262;2022-09-09T00:39:11;94757.25;;;18.85;100.00
12077;BME280;12420;42.676;23.262;2022-09-09T00:41:50;94776.84;;;19.02;100.00
12077;BME280;12420;42.676;23.262;2022-09-09T00:44:27;94782.38;;;18.93;100.00
12077;BME280;12420;42.676;23.262;2022-09-09T00:47:09;94736.66;;;18.55;100.00
12077;BME280;12420;42.676;23.262;2022-09-09T00:49:47;94758.97;;;18.63;100.00
12077;BME280;12420;42.676;23.262;2022-09-09T00:52:25;94782.16;;;18.81;100.00
12077;BME280;12420;42.676;23.262;2022-09-09T00:55:03;94775.81;;;18.63;100.00
12077;BME280;12420;42.676;23.262;2022-09-09T00:57:34;94747.84;;;18.38;100.00
12077;BME280;12420;42.676;23.262;2022-09-09T01:00:19;94761.38;;;18.49;100.00
12077;BME280;12420;42.676;23.262;2022-09-09T01:02:53;94777.63;;;18.51;100.00
12077;BME280;12420;42.676;23.262;2022-09-09T01:05:29;94776.03;;;18.75;100.00
12077;BME280;12420;42.676;23.262;2022-09-09T01:07:57;94787.59;;;18.79;100.00
12077;BME280;12420;42.676;23.262;2022-09-09T01:10:29;94741.91;;;18.51;100.00
12077;BME280;12420;42.676;23.262;2022-09-09T01:13:03;94789.00;;;18.87;100.00
12077;BME280;12420;42.676;23.262;2022-09-09T01:15:32;94725.00;;;18.41;100.00
12077;BME280;12420;42.676;23.262;2022-09-09T01:18:04;94747.28;;;18.39;100.00
12077;BME280;12420;42.676;23.262;2022-09-09T01:20:39;94696.16;;;18.14;100.00
12077;BME280;12420;42.676;23.262;2022-09-09T01:26:21;94781.16;;;18.86;100.00
12077;BME280;12420;42.676;23.262;2022-09-09T01:28:51;94783.16;;;18.76;100.00
12077;BME280;12420;42.676;23.262;2022-09-09T01:31:21;94795.00;;;18.66;100.00
12077;BME280;12420;42.676;23.262;2022-09-09T01:33:50;94813.03;;;18.38;100.00
12077;BME280;12420;42.676;23.262;2022-09-09T01:36:26;94693.41;;;17.71;100.00
12077;BME280;12420;42.676;23.262;2022-09-09T01:38:55;94799.88;;;18.49;100.00
12077;BME280;12420;42.676;23.262;2022-09-09T01:41:23;94799.63;;;18.54;100.00
12077;BME280;12420;42.676;23.262;2022-09-09T01:43:50;94809.09;;;18.41;100.00
12077;BME280;12420;42.676;23.262;2022-09-09T01:46:18;94765.53;;;18.06;100.00
12077;BME280;12420;42.676;23.262;2022-09-09T01:48:48;94814.84;;;18.26;100.00
12077;BME280;12420;42.676;23.262;2022-09-09T01:51:16;94809.56;;;18.30;100.00
12077;BME280;12420;42.676;23.262;2022-09-09T01:53:43;94807.03;;;18.25;100.00
12077;BME280;12420;42.676;23.262;2022-09-09T01:56:21;94818.78;;;18.23;100.00
12077;BME280;12420;42.676;23.262;2022-09-09T01:59:01;94778.31;;;18.16;100.00
12077;BME280;12420;42.676;23.262;2022-09-09T02:01:39;94797.47;;;18.28;100.00
12077;BME280;12420;42.676;23.262;2022-09-09T02:04:21;94740.53;;;17.83;100.00
12077;BME280;12420;42.676;23.262;2022-09-09T02:06:52;94772.28;;;18.03;100.00
12077;BME280;12420;42.676;23.262;2022-09-09T02:09:23;94799.53;;;18.27;100.00
12077;BME280;12420;42.676;23.262;2022-09-09T02:11:57;94791.25;;;18.29;100.00
12077;BME280;12420;42.676;23.262;2022-09-09T02:14:30;94777.19;;;18.19;100.00
12077;BME280;12420;42.676;23.262;2022-09-09T02:17:04;94787.91;;;18.31;100.00
12077;BME280;12420;42.676;23.262;2022-09-09T02:19:37;94793.66;;;18.15;100.00
12077;BME280;12420;42.676;23.262;2022-09-09T02:22:05;94745.22;;;17.80;100.00
12077;BME280;12420;42.676;23.262;2022-09-09T02:24:36;94791.66;;;18.08;100.00
12077;BME280;12420;42.676;23.262;2022-09-09T02:27:06;94780.28;;;18.06;100.00
12077;BME280;12420;42.676;23.262;2022-09-09T02:29:39;94764.59;;;17.86;100.00
12077;BME280;12420;42.676;23.262;2022-09-09T02:32:11;94794.13;;;18.04;100.00
12077;BME280;12420;42.676;23.262;2022-09-09T02:34:43;94790.38;;;17.84;100.00
12077;BME280;12420;42.676;23.262;2022-09-09T02:37:12;94794.53;;;18.00;100.00
12077;BME280;12420;42.676;23.262;2022-09-09T02:39:40;94802.34;;;18.02;100.00
12077;BME280;12420;42.676;23.262;2022-09-09T02:42:07;94740.03;;;17.51;100.00
12077;BME280;12420;42.676;23.262;2022-09-09T02:44:36;94780.59;;;17.93;100.00
12077;BME280;12420;42.676;23.262;2022-09-09T02:47:16;94791.78;;;17.93;100.00
12077;BME280;12420;42.676;23.262;2022-09-09T02:49:54;94782.56;;;17.75;100.00
12077;BME280;12420;42.676;23.262;2022-09-09T02:52:30;94777.31;;;17.79;100.00
12077;BME280;12420;42.676;23.262;2022-09-09T02:55:04;94754.06;;;17.69;100.00
12077;BME280;12420;42.676;23.262;2022-09-09T02:57:34;94782.28;;;17.88;100.00
12077;BME280;12420;42.676;23.262;2022-09-09T03:00:05;94797.72;;;17.97;100.00
12077;BME280;12420;42.676;23.262;2022-09-09T03:02:32;94767.72;;;17.65;100.00
12077;BME280;12420;42.676;23.262;2022-09-09T03:04:58;94797.78;;;17.89;100.00
12077;BME280;12420;42.676;23.262;2022-09-09T03:07:25;94790.69;;;17.88;100.00
12077;BME280;12420;42.676;23.262;2022-09-09T03:09:52;94766.50;;;17.75;100.00
12077;BME280;12420;42.676;23.262;2022-09-09T03:12:20;94793.44;;;17.96;100.00
12077;BME280;12420;42.676;23.262;2022-09-09T03:14:47;94800.97;;;17.86;100.00
12077;BME280;12420;42.676;23.262;2022-09-09T03:17:15;94799.22;;;17.98;100.00
12077;BME280;12420;42.676;23.262;2022-09-09T03:19:43;94820.31;;;17.99;100.00
12077;BME280;12420;42.676;23.262;2022-09-09T03:22:10;94685.59;;;17.20;100.00
12077;BME280;12420;42.676;23.262;2022-09-09T03:24:39;94796.94;;;18.04;100.00
12077;BME280;12420;42.676;23.262;2022-09-09T03:27:05;94693.34;;;17.29;100.00
12077;BME280;12420;42.676;23.262;2022-09-09T03:29:32;94732.63;;;17.13;100.00
12077;BME280;12420;42.676;23.262;2022-09-09T03:32:01;94796.72;;;17.85;100.00
12077;BME280;12420;42.676;23.262;2022-09-09T03:34:29;94795.56;;;17.88;100.00
12077;BME280;12420;42.676;23.262;2022-09-09T03:36:57;94785.69;;;17.87;100.00
12077;BME280;12420;42.676;23.262;2022-09-09T03:39:25;94787.34;;;17.90;100.00
12077;BME280;12420;42.676;23.262;2022-09-09T03:41:52;94789.16;;;17.95;100.00
12077;BME280;12420;42.676;23.262;2022-09-09T03:44:18;94792.19;;;17.89;100.00
12077;BME280;12420;42.676;23.262;2022-09-09T03:46:45;94777.38;;;17.71;100.00
12077;BME280;12420;42.676;23.262;2022-09-09T03:49:12;94713.41;;;16.77;100.00
12077;BME280;12420;42.676;23.262;2022-09-09T03:51:41;94809.88;;;17.67;100.00
12077;BME280;12420;42.676;23.262;2022-09-09T03:54:08;94829.25;;;17.72;100.00
12077;BME280;12420;42.676;23.262;2022-09-09T03:56:35;94853.28;;;17.75;100.00
12077;BME280;12420;42.676;23.262;2022-09-09T03:59:03;94797.47;;;17.77;100.00
12077;BME280;12420;42.676;23.262;2022-09-09T04:01:30;94842.09;;;17.75;100.00
12077;BME280;12420;42.676;23.262;2022-09-09T04:03:57;94803.41;;;17.56;100.00
12077;BME280;12420;42.676;23.262;2022-09-09T04:06:24;94741.22;;;17.41;100.00
12077;BME280;12420;42.676;23.262;2022-09-09T04:08:53;94807.56;;;17.81;100.00
12077;BME280;12420;42.676;23.262;2022-09-09T04:11:21;94693.38;;;16.96;100.00
12077;BME280;12420;42.676;23.262;2022-09-09T04:13:48;94781.91;;;17.34;100.00
12077;BME280;12420;42.676;23.262;2022-09-09T04:16:15;94751.09;;;17.09;100.00
12077;BME280;12420;42.676;23.262;2022-09-09T04:18:42;94762.63;;;17.46;100.00
12077;BME280;12420;42.676;23.262;2022-09-09T04:21:10;94806.94;;;17.90;100.00
12077;BME280;12420;42.676;23.262;2022-09-09T04:23:38;94797.22;;;17.91;100.00
12077;BME280;12420;42.676;23.262;2022-09-09T04:26:07;94780.91;;;17.47;100.00
12077;BME280;12420;42.676;23.262;2022-09-09T04:28:37;94826.19;;;17.86;100.00
12077;BME280;12420;42.676;23.262;2022-09-09T04:31:06;94739.16;;;17.41;100.00
12077;BME280;12420;42.676;23.262;2022-09-09T04:33:34;94714.03;;;17.33;100.00
12077;BME280;12420;42.676;23.262;2022-09-09T04:36:02;94793.56;;;17.81;100.00
12077;BME280;12420;42.676;23.262;2022-09-09T04:38:29;94744.00;;;17.41;100.00
12077;BME280;12420;42.676;23.262;2022-09-09T04:40:56;94767.97;;;17.84;100.00
12077;BME280;12420;42.676;23.262;2022-09-09T04:43:24;94818.78;;;18.23;100.00
12077;BME280;12420;42.676;23.262;2022-09-09T04:45:53;94715.44;;;17.42;100.00
12077;BME280;12420;42.676;23.262;2022-09-09T04:48:20;94773.06;;;17.70;100.00
12077;BME280;12420;42.676;23.262;2022-09-09T04:50:54;94776.19;;;18.07;100.00
12077;BME280;12420;42.676;23.262;2022-09-09T04:53:21;94800.94;;;18.36;100.00
12077;BME280;12420;42.676;23.262;2022-09-09T04:55:48;94798.56;;;18.50;100.00
12077;BME280;12420;42.676;23.262;2022-09-09T04:58:15;94771.34;;;18.42;100.00
12077;BME280;12420;42.676;23.262;2022-09-09T05:03:28;94810.28;;;18.91;100.00
12077;BME280;12420;42.676;23.262;2022-09-09T05:06:02;94788.97;;;19.05;100.00
12077;BME280;12420;42.676;23.262;2022-09-09T05:08:30;94782.78;;;19.06;100.00
12077;BME280;12420;42.676;23.262;2022-09-09T05:10:57;94827.25;;;19.10;100.00
12077;BME280;12420;42.676;23.262;2022-09-09T05:13:24;94787.88;;;19.18;100.00
12077;BME280;12420;42.676;23.262;2022-09-09T05:15:55;94802.28;;;19.32;100.00
12077;BME280;12420;42.676;23.262;2022-09-09T05:18:22;94731.91;;;18.93;100.00
12077;BME280;12420;42.676;23.262;2022-09-09T05:20:49;94818.09;;;19.64;100.00
12077;BME280;12420;42.676;23.262;2022-09-09T05:23:16;94742.22;;;19.44;100.00
12077;BME280;12420;42.676;23.262;2022-09-09T05:25:43;94677.19;;;19.01;100.00
12077;BME280;12420;42.676;23.262;2022-09-09T05:28:12;94703.66;;;19.45;100.00
12077;BME280;12420;42.676;23.262;2022-09-09T05:30:40;94804.50;;;20.34;100.00
12077;BME280;12420;42.676;23.262;2022-09-09T05:33:08;94811.03;;;20.46;100.00
12077;BME280;12420;42.676;23.262;2022-09-09T05:35:35;94780.38;;;20.31;100.00
12077;BME280;12420;42.676;23.262;2022-09-09T05:38:03;94765.75;;;20.52;100.00
12077;BME280;12420;42.676;23.262;2022-09-09T05:40:30;94805.16;;;20.91;100.00
12077;BME280;12420;42.676;23.262;2022-09-09T05:43:00;94771.69;;;20.66;100.00
12077;BME280;12420;42.676;23.262;2022-09-09T05:45:27;94810.03;;;21.00;100.00
12077;BME280;12420;42.676;23.262;2022-09-09T05:47:54;94820.84;;;21.03;100.00
12077;BME280;12420;42.676;23.262;2022-09-09T05:50:22;94810.78;;;21.00;100.00
12077;BME280;12420;42.676;23.262;2022-09-09T05:52:49;94805.75;;;20.89;100.00
12077;BME280;12420;42.676;23.262;2022-09-09T05:55:15;94819.97;;;21.01;98.71
12077;BME280;12420;42.676;23.262;2022-09-09T05:57:48;94721.63;;;20.35;98.87
12077;BME280;12420;42.676;23.262;2022-09-09T06:00:17;94757.94;;;20.60;99.40
12077;BME280;12420;42.676;23.262;2022-09-09T06:02:50;94805.31;;;20.93;99.07
12077;BME280;12420;42.676;23.262;2022-09-09T06:05:17;94837.28;;;20.88;98.64
12077;BME280;12420;42.676;23.262;2022-09-09T06:07:46;94821.88;;;20.98;99.95
12077;BME280;12420;42.676;23.262;2022-09-09T06:10:13;94814.78;;;20.88;99.53
12077;BME280;12420;42.676;23.262;2022-09-09T06:12:40;94766.38;;;20.70;98.44
12077;BME280;12420;42.676;23.262;2022-09-09T06:15:07;94743.88;;;20.79;99.47
12077;BME280;12420;42.676;23.262;2022-09-09T06:17:34;94855.50;;;21.35;94.22
12077;BME280;12420;42.676;23.262;2022-09-09T06:20:02;94829.41;;;21.44;94.00
12077;BME280;12420;42.676;23.262;2022-09-09T06:22:29;94818.75;;;21.53;94.25
12077;BME280;12420;42.676;23.262;2022-09-09T06:24:57;94784.81;;;21.31;95.16
12077;BME280;12420;42.676;23.262;2022-09-09T06:27:27;94830.13;;;21.55;92.29
12077;BME280;12420;42.676;23.262;2022-09-09T06:29:54;94739.84;;;21.02;90.88
12077;BME280;12420;42.676;23.262;2022-09-09T06:32:21;94823.50;;;21.91;90.67
12077;BME280;12420;42.676;23.262;2022-09-09T06:34:47;94800.69;;;21.87;90.07
12077;BME280;12420;42.676;23.262;2022-09-09T06:37:15;94818.66;;;22.23;87.27
12077;BME280;12420;42.676;23.262;2022-09-09T06:39:41;94731.25;;;21.60;87.23
12077;BME280;12420;42.676;23.262;2022-09-09T06:42:10;94810.63;;;22.29;85.09
12077;BME280;12420;42.676;23.262;2022-09-09T06:44:36;94837.06;;;22.45;85.35
12077;BME280;12420;42.676;23.262;2022-09-09T06:47:04;94796.91;;;22.35;84.85
12077;BME280;12420;42.676;23.262;2022-09-09T06:49:30;94811.63;;;22.55;82.69
12077;BME280;12420;42.676;23.262;2022-09-09T06:51:57;94833.31;;;22.74;81.04
12077;BME280;12420;42.676;23.262;2022-09-09T06:54:24;94806.78;;;22.15;82.24
12077;BME280;12420;42.676;23.262;2022-09-09T06:56:51;94832.13;;;22.56;83.27
12077;BME280;12420;42.676;23.262;2022-09-09T06:59:19;94838.25;;;22.95;81.70
12077;BME280;12420;42.676;23.262;2022-09-09T07:01:46;94845.56;;;22.88;80.28
12077;BME280;12420;42.676;23.262;2022-09-09T07:04:13;94838.25;;;23.16;78.67
12077;BME280;12420;42.676;23.262;2022-09-09T07:06:41;94834.69;;;23.16;78.48
12077;BME280;12420;42.676;23.262;2022-09-09T07:09:10;94843.16;;;23.16;78.43
12077;BME280;12420;42.676;23.262;2022-09-09T07:11:39;94832.94;;;23.11;78.28
12077;BME280;12420;42.676;23.262;2022-09-09T07:14:06;94833.81;;;23.13;79.04
12077;BME280;12420;42.676;23.262;2022-09-09T07:16:35;94825.69;;;23.08;78.33
12077;BME280;12420;42.676;23.262;2022-09-09T07:19:03;94809.00;;;22.90;79.07
12077;BME280;12420;42.676;23.262;2022-09-09T07:21:30;94824.72;;;23.15;78.82
12077;BME280;12420;42.676;23.262;2022-09-09T07:23:58;94814.56;;;23.22;80.24
12077;BME280;12420;42.676;23.262;2022-09-09T07:26:26;94826.94;;;23.50;79.53
12077;BME280;12420;42.676;23.262;2022-09-09T07:28:54;94790.50;;;23.21;78.41
12077;BME280;12420;42.676;23.262;2022-09-09T07:31:23;94824.59;;;23.58;77.99
12077;BME280;12420;42.676;23.262;2022-09-09T07:33:53;94815.66;;;23.61;77.78
12077;BME280;12420;42.676;23.262;2022-09-09T07:36:22;94831.25;;;23.62;78.00
12077;BME280;12420;42.676;23.262;2022-09-09T07:38:51;94821.63;;;23.89;76.12
12077;BME280;12420;42.676;23.262;2022-09-09T07:41:21;94819.91;;;23.96;76.57
12077;BME280;12420;42.676;23.262;2022-09-09T07:43:49;94869.59;;;24.22;72.73
12077;BME280;12420;42.676;23.262;2022-09-09T07:46:17;94820.53;;;24.30;73.43
12077;BME280;12420;42.676;23.262;2022-09-09T07:48:46;94834.56;;;24.51;70.49
12077;BME280;12420;42.676;23.262;2022-09-09T07:51:20;94763.13;;;24.15;70.33
12077;BME280;12420;42.676;23.262;2022-09-09T07:53:48;94817.19;;;24.68;68.77
12077;BME280;12420;42.676;23.262;2022-09-09T07:56:17;94839.06;;;24.80;69.89
12077;BME280;12420;42.676;23.262;2022-09-09T07:58:45;94833.72;;;24.60;69.51
12077;BME280;12420;42.676;23.262;2022-09-09T08:01:14;94829.13;;;24.67;68.31
12077;BME280;12420;42.676;23.262;2022-09-09T08:03:42;94796.75;;;24.70;67.65
12077;BME280;12420;42.676;23.262;2022-09-09T08:06:10;94859.25;;;24.86;67.97
12077;BME280;12420;42.676;23.262;2022-09-09T08:08:39;94843.78;;;25.12;66.75
12077;BME280;12420;42.676;23.262;2022-09-09T08:11:09;94827.28;;;25.21;65.37
12077;BME280;12420;42.676;23.262;2022-09-09T08:13:37;94834.31;;;25.20;65.66
12077;BME280;12420;42.676;23.262;2022-09-09T08:16:06;94809.78;;;25.12;66.12
12077;BME280;12420;42.676;23.262;2022-09-09T08:18:34;94818.91;;;24.74;66.26
12077;BME280;12420;42.676;23.262;2022-09-09T08:21:09;94814.97;;;25.16;66.13
12077;BME280;12420;42.676;23.262;2022-09-09T08:23:39;94837.03;;;25.43;64.41
12077;BME280;12420;42.676;23.262;2022-09-09T08:26:09;94789.69;;;24.83;65.82
12077;BME280;12420;42.676;23.262;2022-09-09T08:28:36;94811.53;;;25.18;65.38
12077;BME280;12420;42.676;23.262;2022-09-09T08:31:08;94705.25;;;24.42;65.74
12077;BME280;12420;42.676;23.262;2022-09-09T08:33:35;94731.03;;;24.72;64.52
12077;BME280;12420;42.676;23.262;2022-09-09T08:36:04;94833.59;;;25.45;65.27
12077;BME280;12420;42.676;23.262;2022-09-09T08:38:32;94847.78;;;25.33;64.81
12077;BME280;12420;42.676;23.262;2022-09-09T08:41:10;94789.72;;;25.20;64.92
12077;BME280;12420;42.676;23.262;2022-09-09T08:43:46;94823.97;;;25.64;63.55
12077;BME280;12420;42.676;23.262;2022-09-09T08:46:18;94814.75;;;25.63;63.74
12077;BME280;12420;42.676;23.262;2022-09-09T08:48:58;94814.88;;;25.65;63.48
12077;BME280;12420;42.676;23.262;2022-09-09T08:51:30;94814.13;;;25.65;62.40
12077;BME280;12420;42.676;23.262;2022-09-09T08:54:00;94810.63;;;25.52;63.59
12077;BME280;12420;42.676;23.262;2022-09-09T08:56:31;94807.78;;;25.52;62.61
12077;BME280;12420;42.676;23.262;2022-09-09T08:59:00;94816.00;;;25.60;63.19
12077;BME280;12420;42.676;23.262;2022-09-09T09:01:38;94809.94;;;25.40;63.41
12077;BME280;12420;42.676;23.262;2022-09-09T09:04:16;94777.34;;;25.53;61.59
12077;BME280;12420;42.676;23.262;2022-09-09T09:06:53;94735.97;;;25.34;61.11
12077;BME280;12420;42.676;23.262;2022-09-09T09:09:29;94771.97;;;25.85;60.72
12077;BME280;12420;42.676;23.262;2022-09-09T09:12:01;94805.84;;;26.08;60.08
12077;BME280;12420;42.676;23.262;2022-09-09T09:14:35;94798.81;;;26.09;61.41
12077;BME280;12420;42.676;23.262;2022-09-09T09:17:05;94832.03;;;26.34;59.18
12077;BME280;12420;42.676;23.262;2022-09-09T09:19:34;94786.84;;;26.11;59.02
12077;BME280;12420;42.676;23.262;2022-09-09T09:22:06;94701.13;;;25.45;59.50
12077;BME280;12420;42.676;23.262;2022-09-09T09:24:47;94783.47;;;26.14;59.81
12077;BME280;12420;42.676;23.262;2022-09-09T09:27:30;94751.94;;;25.94;60.65
12077;BME280;12420;42.676;23.262;2022-09-09T09:30:02;94833.28;;;26.45;58.46
12077;BME280;12420;42.676;23.262;2022-09-09T09:32:33;94745.94;;;26.02;59.42
12077;BME280;12420;42.676;23.262;2022-09-09T09:35:06;94748.81;;;26.16;59.41
12077;BME280;12420;42.676;23.262;2022-09-09T09:37:36;94725.66;;;25.80;57.93
12077;BME280;12420;42.676;23.262;2022-09-09T09:40:10;94795.34;;;26.80;57.34
12077;BME280;12420;42.676;23.262;2022-09-09T09:42:48;94790.78;;;26.89;58.98
12077;BME280;12420;42.676;23.262;2022-09-09T09:45:18;94783.44;;;26.83;58.78
12077;BME280;12420;42.676;23.262;2022-09-09T09:47:58;94790.75;;;26.59;59.42
12077;BME280;12420;42.676;23.262;2022-09-09T09:50:25;94785.06;;;26.59;58.41
12077;BME280;12420;42.676;23.262;2022-09-09T09:52:56;94746.28;;;26.36;58.49
12077;BME280;12420;42.676;23.262;2022-09-09T09:55:23;94793.13;;;26.78;59.17
12077;BME280;12420;42.676;23.262;2022-09-09T09:57:52;94775.13;;;26.88;56.41
12077;BME280;12420;42.676;23.262;2022-09-09T10:00:21;94679.78;;;25.97;57.47
12077;BME280;12420;42.676;23.262;2022-09-09T10:02:49;94779.34;;;26.87;58.13
12077;BME280;12420;42.676;23.262;2022-09-09T10:05:20;94790.16;;;26.90;59.49
12077;BME280;12420;42.676;23.262;2022-09-09T10:08:00;94786.50;;;26.88;58.45
12077;BME280;12420;42.676;23.262;2022-09-09T10:10:37;94703.19;;;26.39;57.22
12077;BME280;12420;42.676;23.262;2022-09-09T10:13:12;94696.06;;;26.11;58.89
12077;BME280;12420;42.676;23.262;2022-09-09T10:15:49;94700.91;;;26.08;57.00
12077;BME280;12420;42.676;23.262;2022-09-09T10:18:34;94772.09;;;26.83;57.39
12077;BME280;12420;42.676;23.262;2022-09-09T10:21:14;94824.03;;;27.00;57.14
12077;BME280;12420;42.676;23.262;2022-09-09T10:24:00;94792.34;;;26.92;56.86
12077;BME280;12420;42.676;23.262;2022-09-09T10:26:40;94808.34;;;26.99;56.04
12077;BME280;12420;42.676;23.262;2022-09-09T10:32:36;94779.47;;;26.61;58.32
12077;BME280;12420;42.676;23.262;2022-09-09T10:35:10;94796.63;;;26.63;58.19
12077;BME280;12420;42.676;23.262;2022-09-09T10:37:46;94795.47;;;26.68;59.76
12077;BME280;12420;42.676;23.262;2022-09-09T10:40:27;94810.28;;;26.53;59.84
12077;BME280;12420;42.676;23.262;2022-09-09T10:43:08;94785.16;;;26.47;60.21
12077;BME280;12420;42.676;23.262;2022-09-09T10:45:48;94775.91;;;26.47;59.22
12077;BME280;12420;42.676;23.262;2022-09-09T10:48:34;94804.94;;;26.59;61.06
12077;BME280;12420;42.676;23.262;2022-09-09T10:51:17;94794.50;;;26.50;60.63
12077;BME280;12420;42.676;23.262;2022-09-09T10:53:57;94812.81;;;26.47;62.31
12077;BME280;12420;42.676;23.262;2022-09-09T10:56:29;94738.63;;;26.11;62.04
12077;BME280;12420;42.676;23.262;2022-09-09T10:59:05;94806.06;;;26.26;62.63
12077;BME280;12420;42.676;23.262;2022-09-09T11:01:38;94797.13;;;26.18;63.84
12077;BME280;12420;42.676;23.262;2022-09-09T11:04:11;94788.00;;;26.06;65.19
12077;BME280;12420;42.676;23.262;2022-09-09T11:06:45;94701.38;;;25.24;65.83
12077;BME280;12420;42.676;23.262;2022-09-09T11:09:15;94715.38;;;25.33;65.70
12077;BME280;12420;42.676;23.262;2022-09-09T11:11:48;94740.34;;;25.11;66.58
12077;BME280;12420;42.676;23.262;2022-09-09T11:14:22;94749.06;;;25.41;67.05
12077;BME280;12420;42.676;23.262;2022-09-09T11:16:57;94787.66;;;25.86;69.24
12077;BME280;12420;42.676;23.262;2022-09-09T11:19:31;94751.91;;;25.41;69.15
12077;BME280;12420;42.676;23.262;2022-09-09T11:22:03;94756.47;;;25.99;69.09
12077;BME280;12420;42.676;23.262;2022-09-09T11:24:34;94728.88;;;25.74;68.00
12077;BME280;12420;42.676;23.262;2022-09-09T11:27:09;94807.91;;;25.94;69.39
12077;BME280;12420;42.676;23.262;2022-09-09T11:30:05;94756.28;;;26.23;69.68
12077;BME280;12420;42.676;23.262;2022-09-09T11:32:54;94751.72;;;26.18;68.52
12077;BME280;12420;42.676;23.262;2022-09-09T11:35:40;94732.41;;;26.14;68.49
12077;BME280;12420;42.676;23.262;2022-09-09T11:38:25;94742.38;;;26.29;69.18
12077;BME280;12420;42.676;23.262;2022-09-09T11:40:58;94701.41;;;26.05;68.85
12077;BME280;12420;42.676;23.262;2022-09-09T11:43:29;94702.88;;;26.33;68.60
12077;BME280;12420;42.676;23.262;2022-09-09T11:45:59;94689.09;;;26.41;69.31
12077;BME280;12420;42.676;23.262;2022-09-09T11:48:32;94681.28;;;26.56;69.19
12077;BME280;12420;42.676;23.262;2022-09-09T11:51:02;94698.34;;;26.85;68.70
12077;BME280;12420;42.676;23.262;2022-09-09T11:53:31;94694.81;;;27.01;68.87
12077;BME280;12420;42.676;23.262;2022-09-09T11:56:07;94697.94;;;27.07;68.38
12077;BME280;12420;42.676;23.262;2022-09-09T11:58:54;94706.00;;;27.26;67.42
12077;BME280;12420;42.676;23.262;2022-09-09T12:01:34;94729.47;;;27.27;67.98
12077;BME280;12420;42.676;23.262;2022-09-09T12:04:22;94708.94;;;27.28;66.94
12077;BME280;12420;42.676;23.262;2022-09-09T12:06:56;94634.91;;;26.65;66.47
12077;BME280;12420;42.676;23.262;2022-09-09T12:09:43;94697.50;;;27.13;66.67
12077;BME280;12420;42.676;23.262;2022-09-09T12:12:28;94662.53;;;27.24;64.95
12077;BME280;12420;42.676;23.262;2022-09-09T12:17:46;94679.78;;;27.60;62.97
12077;BME280;12420;42.676;23.262;2022-09-09T12:20:18;94688.25;;;27.74;62.94
12077;BME280;12420;42.676;23.262;2022-09-09T12:22:54;94684.31;;;27.97;63.89
12077;BME280;12420;42.676;23.262;2022-09-09T12:25:32;94685.09;;;28.15;63.03
12077;BME280;12420;42.676;23.262;2022-09-09T12:28:05;94683.72;;;28.00;60.45
12077;BME280;12420;42.676;23.262;2022-09-09T12:30:43;94671.69;;;28.18;60.47
12077;BME280;12420;42.676;23.262;2022-09-09T12:33:17;94673.06;;;28.17;59.24
12077;BME280;12420;42.676;23.262;2022-09-09T12:35:51;94648.59;;;28.09;58.36
12077;BME280;12420;42.676;23.262;2022-09-09T12:38:26;94610.25;;;27.79;59.54
12077;BME280;12420;42.676;23.262;2022-09-09T12:40:58;94674.56;;;28.35;59.80
12077;BME280;12420;42.676;23.262;2022-09-09T12:43:27;94716.44;;;28.33;58.55
12077;BME280;12420;42.676;23.262;2022-09-09T12:45:58;94678.50;;;28.10;58.25
12077;BME280;12420;42.676;23.262;2022-09-09T12:48:34;94657.03;;;28.07;57.52
12077;BME280;12420;42.676;23.262;2022-09-09T12:51:07;94677.59;;;27.90;58.67
12077;BME280;12420;42.676;23.262;2022-09-09T12:53:45;94563.78;;;27.09;59.17
12077;BME280;12420;42.676;23.262;2022-09-09T12:56:20;94656.06;;;27.85;59.29
12077;BME280;12420;42.676;23.262;2022-09-09T12:58:49;94669.91;;;27.61;60.47
12077;BME280;12420;42.676;23.262;2022-09-09T13:01:22;94640.19;;;27.48;60.54
12077;BME280;12420;42.676;23.262;2022-09-09T13:03:49;94645.31;;;27.83;61.11
12077;BME280;12420;42.676;23.262;2022-09-09T13:06:21;94649.88;;;27.90;61.35
12077;BME280;12420;42.676;23.262;2022-09-09T13:08:58;94627.13;;;27.75;61.80
12077;BME280;12420;42.676;23.262;2022-09-09T13:11:30;94638.69;;;27.63;62.22
12077;BME280;12420;42.676;23.262;2022-09-09T13:13:58;94689.91;;;27.79;62.60
12077;BME280;12420;42.676;23.262;2022-09-09T13:16:26;94641.63;;;27.81;62.91
12077;BME280;12420;42.676;23.262;2022-09-09T13:18:57;94555.22;;;27.22;62.22